Main page
METAR-TAF:

METAR-TAF

Airports :

Coles County Memorial Airport

Mattoon / Charleston, Illinois, United States

latitude: 39-28-41N, longitude: 088-16-45W, elevation: 722 ft

Current weather observation

The report was made 48 minutes ago, at 21:53 UTC
Wind 6 mph from the South
Temperature 90°F
Humidity 41%
Pressure 30.19 in. Hg
Visibility: 10 miles
Clear sky

METAR: KMTO 192153Z AUTO 19005KT 10SM CLR 32/17 A3019 RMK AO2 SLP215 T03220172

Time: 17:41 (22:41 UTC)


TAF: missing

Weather observations and forecasts of more than 4000 airports (METAR and TAF reports).

The available stations are represented by yellow and red dots on the map.

Hover mouse over dot to see the name of the station.

Then click to see weather observations and forecasts.

To change the map : click on the green buttons with a black cross to zoom in, on the green button with a dash to zoom out, or on the green arrows for adjacent maps.


METAR-TAF: